virtualACA

Welcome To Calgary International Airport CYYC

Hub Roster

Pilot Domicile Rank
Ethan Title - ACA1641CanadaChief Pilot
Friedrich Haselgruber - ACA1760GermanyChief Pilot
Graham Dawson - ACA2317CanadaChief Pilot
Roger Godden - ACA2339CanadaChief Pilot
John Croxford - ACA2492United KingdomChief Pilot
Jaden Bos - ACA2816CanadaSenior Captain
Niklas Schmidt-Roycroft - ACA2887CanadaSenior Officer
Hamir Hamir - ACA2906CanadaFirst Officer
Jake Moerland - ACA3058CanadaFirst Officer

Current Vatsim Weather


CYYC 240700Z 27015G23KT 15SM FEW190 SCT210 05/M05 A2948 RMK AS2CI1 SLP007 DENSITY ALT 3800FT
Calgary International Airport